createdAt,value
2019-01-28T00:02:17.846Z,16.33
2019-01-28T00:04:56.686Z,16.13
2019-01-28T00:07:31.998Z,16.70
2019-01-28T00:10:07.148Z,15.77
2019-01-28T00:12:42.660Z,16.33
2019-01-28T00:15:16.047Z,18.20
2019-01-28T00:17:46.101Z,17.87
2019-01-28T00:20:17.670Z,17.03
2019-01-28T00:22:47.617Z,18.33
2019-01-28T00:25:19.680Z,17.83
2019-01-28T00:27:54.343Z,19.43
2019-01-28T00:30:26.277Z,18.23
2019-01-28T00:33:00.767Z,17.83
2019-01-28T00:35:33.102Z,19.37
2019-01-28T00:38:07.966Z,20.50
2019-01-28T00:40:50.813Z,20.83
2019-01-28T00:43:21.284Z,20.87
2019-01-28T00:45:57.528Z,18.63
2019-01-28T00:48:26.905Z,17.83
2019-01-28T00:51:01.643Z,18.40
2019-01-28T00:53:33.824Z,18.37
2019-01-28T00:56:04.443Z,18.23
2019-01-28T00:58:54.174Z,15.87
2019-01-28T01:01:27.016Z,17.23
2019-01-28T01:03:57.700Z,18.07
2019-01-28T01:06:32.809Z,16.40
2019-01-28T01:09:03.022Z,17.70
2019-01-28T01:11:36.278Z,16.90
2019-01-28T01:14:11.831Z,17.17
2019-01-28T01:16:45.545Z,17.73
2019-01-28T01:19:27.458Z,15.90
2019-01-28T01:21:59.197Z,16.50
2019-01-28T01:24:32.917Z,17.20
2019-01-28T01:27:16.536Z,16.50
2019-01-28T01:29:49.587Z,15.77
2019-01-28T01:32:24.049Z,17.27
2019-01-28T01:35:04.500Z,15.83
2019-01-28T01:37:41.913Z,15.30
2019-01-28T01:40:21.370Z,15.90
2019-01-28T01:42:53.313Z,15.83
2019-01-28T01:45:26.213Z,16.23
2019-01-28T01:48:04.410Z,16.27
2019-01-28T01:50:39.288Z,15.37
2019-01-28T01:53:16.492Z,15.00
2019-01-28T01:55:46.830Z,15.63
2019-01-28T01:58:20.426Z,15.30
2019-01-28T02:00:54.068Z,14.63
2019-01-28T02:03:26.421Z,15.57
2019-01-28T02:06:07.026Z,14.27
2019-01-28T02:08:41.280Z,13.67
2019-01-28T02:11:20.897Z,13.97
2019-01-28T02:13:57.193Z,13.37
2019-01-28T02:16:33.838Z,11.07
2019-01-28T02:19:13.920Z,13.20
2019-01-28T02:21:48.967Z,11.63
2019-01-28T02:24:22.002Z,11.60
2019-01-28T02:27:00.224Z,12.27
2019-01-28T02:29:32.481Z,11.80
2019-01-28T02:32:09.018Z,12.67
2019-01-28T02:34:48.050Z,11.03
2019-01-28T02:37:15.270Z,10.70
2019-01-28T02:39:47.304Z,10.83
2019-01-28T02:42:36.285Z,11.07
2019-01-28T02:45:08.711Z,11.33
2019-01-28T02:47:46.980Z,11.87
2019-01-28T02:50:18.773Z,10.10
2019-01-28T02:52:53.088Z,9.40
2019-01-28T02:55:27.983Z,11.03
2019-01-28T02:58:17.663Z,12.17
2019-01-28T03:00:38.834Z,9.90
2019-01-28T03:03:17.555Z,9.87
2019-01-28T03:05:57.545Z,9.50
2019-01-28T03:08:27.380Z,9.17
2019-01-28T03:11:00.198Z,9.27
2019-01-28T03:13:37.511Z,9.17
2019-01-28T03:16:07.196Z,10.40
2019-01-28T03:18:40.565Z,8.90
2019-01-28T03:21:13.673Z,9.37
2019-01-28T03:23:46.128Z,9.87
2019-01-28T03:26:15.914Z,9.00
2019-01-28T03:28:51.136Z,8.60
2019-01-28T03:31:23.321Z,8.93
2019-01-28T03:33:53.259Z,9.70
2019-01-28T03:36:22.635Z,9.43
2019-01-28T03:38:55.455Z,9.00
2019-01-28T03:41:28.853Z,9.47
2019-01-28T03:44:03.237Z,9.50
2019-01-28T03:46:39.333Z,9.13
2019-01-28T03:49:08.358Z,9.43
2019-01-28T03:51:45.427Z,8.17
2019-01-28T03:54:16.255Z,9.40
2019-01-28T03:56:49.040Z,9.33
2019-01-28T03:59:25.891Z,9.23
2019-01-28T04:01:56.882Z,9.40
2019-01-28T04:04:31.710Z,9.87
2019-01-28T04:07:00.845Z,7.90
2019-01-28T04:09:33.412Z,9.87
2019-01-28T04:12:11.107Z,10.30
2019-01-28T04:14:41.174Z,10.73
2019-01-28T04:17:12.269Z,9.10
2019-01-28T04:19:46.120Z,11.40
2019-01-28T04:22:14.868Z,10.97
2019-01-28T04:24:45.104Z,11.67
2019-01-28T04:27:19.325Z,10.87
2019-01-28T04:29:49.985Z,12.73
2019-01-28T04:32:25.191Z,11.83
2019-01-28T04:34:56.855Z,12.00
2019-01-28T04:37:30.393Z,11.37
2019-01-28T04:40:06.419Z,15.00
2019-01-28T04:42:40.220Z,15.97
2019-01-28T04:45:13.858Z,14.63
2019-01-28T04:47:44.889Z,17.10
2019-01-28T04:50:16.741Z,14.67
2019-01-28T04:52:52.381Z,13.93
2019-01-28T04:55:20.019Z,13.77
2019-01-28T04:57:59.749Z,13.30
2019-01-28T05:00:31.178Z,15.77
2019-01-28T05:03:00.794Z,13.37
2019-01-28T05:05:35.570Z,11.87
2019-01-28T05:08:06.510Z,15.57
2019-01-28T05:10:40.027Z,13.93
2019-01-28T05:13:14.365Z,12.30
2019-01-28T05:15:44.023Z,13.50
2019-01-28T05:18:26.109Z,10.57
2019-01-28T05:21:01.921Z,12.27
2019-01-28T05:23:35.242Z,11.87
2019-01-28T05:26:07.089Z,12.47
2019-01-28T05:28:39.313Z,12.30
2019-01-28T05:31:09.670Z,11.40
2019-01-28T05:33:46.145Z,11.90
2019-01-28T05:36:13.483Z,12.97
2019-01-28T05:38:45.004Z,11.87
2019-01-28T05:41:19.084Z,12.50
2019-01-28T05:43:50.081Z,11.13
2019-01-28T05:46:23.219Z,11.03
2019-01-28T05:48:53.878Z,11.80
2019-01-28T05:51:22.539Z,11.43
2019-01-28T05:53:59.249Z,11.73
2019-01-28T05:56:38.818Z,11.43
2019-01-28T05:59:23.226Z,9.07
2019-01-28T06:02:14.063Z,12.03
2019-01-28T06:05:06.931Z,11.37
2019-01-28T06:08:48.732Z,11.03
2019-01-28T06:13:13.778Z,11.60
2019-01-28T06:28:01.257Z,11.37
2019-01-28T06:32:12.591Z,11.27
2019-01-28T06:42:59.352Z,10.13
2019-01-28T06:48:32.586Z,11.30
2019-01-28T06:56:09.940Z,10.90
2019-01-28T07:07:28.961Z,10.93
2019-01-28T07:16:05.437Z,11.63
2019-01-28T07:29:00.489Z,14.67
2019-01-28T07:29:19.880Z,12.73
2019-01-28T07:32:45.871Z,13.83
2019-01-28T07:53:31.345Z,15.50
2019-01-28T07:56:07.835Z,15.23
2019-01-28T08:24:08.378Z,12.20
2019-01-28T08:27:56.525Z,10.70
2019-01-28T08:31:36.515Z,11.63
2019-01-28T08:34:40.723Z,10.67
2019-01-28T08:46:57.365Z,9.17
2019-01-28T08:50:29.735Z,9.13
2019-01-28T08:52:12.785Z,8.47
2019-01-28T08:54:35.230Z,9.10
2019-01-28T08:57:36.582Z,7.90
2019-01-28T09:00:56.643Z,8.67
2019-01-28T09:03:43.175Z,7.73
2019-01-28T09:10:47.887Z,8.77
2019-01-28T09:17:20.264Z,9.00
2019-01-28T09:20:27.532Z,9.23
2019-01-28T09:23:16.246Z,9.03
2019-01-28T09:26:06.778Z,9.57
2019-01-28T09:29:06.062Z,9.67
2019-01-28T09:32:11.399Z,10.03
2019-01-28T09:34:33.944Z,9.23
2019-01-28T09:37:20.369Z,9.23
2019-01-28T09:40:14.094Z,8.60
2019-01-28T09:43:33.572Z,9.10
2019-01-28T09:47:28.945Z,10.07
2019-01-28T09:49:37.801Z,10.07
2019-01-28T09:52:30.906Z,9.80
2019-01-28T10:02:54.220Z,9.23
2019-01-28T10:05:56.085Z,9.47
2019-01-28T10:08:54.640Z,9.43
2019-01-28T10:11:49.742Z,9.33
2019-01-28T10:14:50.912Z,9.97
2019-01-28T10:17:25.628Z,9.57
2019-01-28T10:20:58.144Z,10.47
2019-01-28T10:24:04.525Z,8.53
2019-01-28T10:29:53.653Z,9.70
2019-01-28T10:32:56.246Z,11.77
2019-01-28T10:36:01.046Z,10.47
2019-01-28T10:39:31.461Z,10.07
2019-01-28T10:41:54.863Z,9.40
2019-01-28T10:45:01.469Z,10.17
2019-01-28T10:47:48.758Z,9.30
2019-01-28T10:50:46.722Z,9.87
2019-01-28T10:53:38.183Z,9.43
2019-01-28T10:56:38.187Z,9.50
2019-01-28T11:00:17.969Z,9.50
2019-01-28T11:07:34.287Z,7.90
2019-01-28T11:10:11.772Z,9.47
2019-01-28T11:12:58.039Z,8.57
2019-01-28T11:15:39.042Z,7.40
2019-01-28T11:18:39.659Z,8.17
2019-01-28T11:21:18.146Z,8.50
2019-01-28T11:26:57.445Z,8.80
2019-01-28T11:30:11.625Z,7.73
2019-01-28T11:33:00.974Z,7.77
2019-01-28T11:35:43.508Z,7.17
2019-01-28T11:38:36.837Z,7.13
2019-01-28T11:41:30.324Z,6.70
2019-01-28T11:44:30.398Z,7.50
2019-01-28T11:52:11.222Z,8.30
2019-01-28T12:09:57.126Z,7.20
2019-01-28T12:16:45.928Z,7.57
2019-01-28T12:19:53.855Z,7.37
2019-01-28T12:23:16.794Z,7.37
2019-01-28T12:29:36.296Z,7.20
2019-01-28T12:32:18.789Z,6.83
2019-01-28T12:35:12.323Z,7.40
2019-01-28T12:37:55.484Z,6.20
2019-01-28T12:40:51.321Z,6.67
2019-01-28T12:43:44.844Z,6.93
2019-01-28T12:49:50.442Z,7.50
2019-01-28T12:52:32.218Z,6.97
2019-01-28T12:57:40.257Z,7.03
2019-01-28T12:59:26.143Z,6.90
2019-01-28T13:02:32.308Z,6.77
2019-01-28T13:06:45.517Z,6.83
2019-01-28T13:07:49.709Z,6.53
2019-01-28T13:10:56.579Z,6.57
2019-01-28T13:16:46.254Z,7.00
2019-01-28T13:22:55.153Z,6.80
2019-01-28T13:25:45.644Z,6.70
2019-01-28T13:28:58.038Z,6.67
2019-01-28T13:31:57.608Z,7.20
2019-01-28T13:34:51.560Z,6.73
2019-01-28T13:37:44.193Z,6.90
2019-01-28T13:41:06.724Z,7.13
2019-01-28T13:43:27.791Z,6.50
2019-01-28T13:46:24.579Z,6.27
2019-01-28T13:49:37.874Z,6.13
2019-01-28T13:55:16.238Z,6.77
2019-01-28T13:58:19.239Z,6.50
2019-01-28T14:04:06.885Z,5.93
2019-01-28T14:06:54.240Z,6.00
2019-01-28T14:12:51.803Z,5.57
2019-01-28T14:16:29.997Z,6.17
2019-01-28T14:19:25.831Z,6.40
2019-01-28T14:22:24.240Z,5.77
2019-01-28T14:24:59.936Z,5.77
2019-01-28T14:27:49.784Z,6.57
2019-01-28T14:31:44.678Z,6.63
2019-01-28T14:34:15.139Z,6.70
2019-01-28T14:36:55.550Z,6.63
2019-01-28T14:40:13.701Z,6.67
2019-01-28T14:43:01.950Z,6.87
2019-01-28T14:49:32.230Z,6.73
2019-01-28T14:51:53.542Z,6.50
2019-01-28T15:35:28.756Z,8.43
2019-01-28T15:45:38.136Z,8.23
2019-01-28T15:48:07.174Z,8.60
2019-01-28T15:50:36.556Z,7.97
2019-01-28T15:53:15.011Z,8.40
2019-01-28T15:55:54.649Z,8.00
2019-01-28T15:58:23.120Z,7.87
2019-01-28T16:00:52.052Z,7.83
2019-01-28T16:03:28.624Z,8.17
2019-01-28T16:06:00.697Z,7.57
2019-01-28T16:08:37.233Z,7.57
2019-01-28T16:11:12.535Z,7.60
2019-01-28T16:13:43.721Z,7.60
2019-01-28T16:16:13.082Z,7.80
2019-01-28T16:18:42.413Z,7.50
2019-01-28T16:21:11.373Z,7.50
2019-01-28T16:23:40.265Z,8.50
2019-01-28T16:26:10.833Z,7.53
2019-01-28T16:28:39.992Z,6.90
2019-01-28T16:31:08.763Z,7.83
2019-01-28T16:33:42.088Z,7.70
2019-01-28T16:36:11.411Z,7.50
2019-01-28T16:38:42.276Z,6.80
2019-01-28T16:41:11.094Z,7.37
2019-01-28T16:43:40.702Z,7.97
2019-01-28T16:46:09.984Z,8.10
2019-01-28T16:48:39.476Z,7.73
2019-01-28T16:51:09.598Z,7.97
2019-01-28T16:53:38.171Z,7.40
2019-01-28T16:56:07.935Z,7.70
2019-01-28T16:58:38.335Z,7.67
2019-01-28T17:01:07.489Z,7.40
2019-01-28T17:03:36.469Z,7.27
2019-01-28T17:06:06.263Z,6.47
2019-01-28T17:08:35.176Z,7.90
2019-01-28T17:11:04.761Z,6.80
2019-01-28T17:13:33.669Z,8.23
2019-01-28T17:16:02.653Z,6.67
2019-01-28T17:18:31.295Z,7.20
2019-01-28T17:21:00.459Z,7.23
2019-01-28T17:23:29.094Z,7.73
2019-01-28T17:25:58.031Z,7.87
2019-01-28T17:28:26.932Z,8.63
2019-01-28T17:30:55.729Z,8.13
2019-01-28T17:33:24.386Z,7.33
2019-01-28T17:35:53.346Z,8.30
2019-01-28T17:38:22.234Z,8.73
2019-01-28T17:40:51.001Z,10.57
2019-01-28T17:43:19.893Z,10.77
2019-01-28T17:45:48.839Z,11.33
2019-01-28T17:48:18.662Z,12.23
2019-01-28T17:50:49.168Z,9.20
2019-01-28T17:53:18.256Z,8.90
2019-01-28T17:55:46.929Z,9.30
2019-01-28T17:58:15.978Z,9.30
2019-01-28T18:00:58.529Z,8.70
2019-01-28T18:03:27.309Z,8.70
2019-01-28T18:05:56.414Z,8.73
2019-01-28T18:08:25.265Z,9.37
2019-01-28T18:10:54.875Z,9.83
2019-01-28T18:13:24.440Z,10.23
2019-01-28T18:15:53.532Z,10.60
2019-01-28T18:18:22.820Z,10.30
2019-01-28T18:20:52.249Z,11.00
2019-01-28T18:23:31.578Z,10.67
2019-01-28T18:26:01.437Z,11.37
2019-01-28T18:28:30.639Z,11.63
2019-01-28T18:30:59.818Z,10.20
2019-01-28T18:33:28.677Z,9.80
2019-01-28T18:36:05.366Z,9.63
2019-01-28T18:38:28.639Z,10.00
2019-01-28T18:40:57.949Z,10.10
2019-01-28T18:43:27.552Z,10.13
2019-01-28T18:45:56.450Z,9.30
2019-01-28T18:48:27.167Z,10.27
2019-01-28T18:50:59.647Z,9.90
2019-01-28T18:53:30.438Z,9.70
2019-01-28T18:55:59.888Z,9.90
2019-01-28T18:58:28.606Z,10.00
2019-01-28T19:00:57.286Z,10.03
2019-01-28T19:03:26.295Z,10.50
2019-01-28T19:05:59.481Z,9.43
2019-01-28T19:08:53.162Z,10.00
2019-01-28T19:11:27.824Z,9.67
2019-01-28T19:14:05.749Z,10.47
2019-01-28T19:16:52.771Z,10.60
2019-01-28T19:19:34.153Z,10.30
2019-01-28T19:25:23.676Z,10.23
2019-01-28T19:27:53.043Z,10.03
2019-01-28T19:30:24.268Z,10.00
2019-01-28T20:57:00.757Z,12.30
